sensor_id;sensor_type;location;lat;lon;timestamp;P1;durP1;ratioP1;P2;durP2;ratioP2
43857;SDS011;29507;51.284;5.758;2023-04-06T00:00:50;14.55;;;5.82;;
43857;SDS011;29507;51.284;5.758;2023-04-06T00:03:16;14.70;;;5.95;;
43857;SDS011;29507;51.284;5.758;2023-04-06T00:05:41;14.35;;;5.90;;
43857;SDS011;29507;51.284;5.758;2023-04-06T00:08:07;15.35;;;6.50;;
43857;SDS011;29507;51.284;5.758;2023-04-06T00:10:33;13.73;;;6.05;;
43857;SDS011;29507;51.284;5.758;2023-04-06T00:12:58;14.13;;;5.97;;
43857;SDS011;29507;51.284;5.758;2023-04-06T00:15:25;14.88;;;6.57;;
43857;SDS011;29507;51.284;5.758;2023-04-06T00:17:50;14.02;;;7.00;;
43857;SDS011;29507;51.284;5.758;2023-04-06T00:20:16;12.35;;;5.95;;
43857;SDS011;29507;51.284;5.758;2023-04-06T00:22:43;14.55;;;6.10;;
43857;SDS011;29507;51.284;5.758;2023-04-06T00:25:08;14.27;;;5.47;;
43857;SDS011;29507;51.284;5.758;2023-04-06T00:27:35;16.35;;;7.70;;
43857;SDS011;29507;51.284;5.758;2023-04-06T00:30:02;16.70;;;6.53;;
43857;SDS011;29507;51.284;5.758;2023-04-06T00:32:29;17.80;;;7.43;;
43857;SDS011;29507;51.284;5.758;2023-04-06T00:34:55;14.02;;;6.63;;
43857;SDS011;29507;51.284;5.758;2023-04-06T00:37:21;14.30;;;7.18;;
43857;SDS011;29507;51.284;5.758;2023-04-06T00:39:46;14.55;;;6.78;;
43857;SDS011;29507;51.284;5.758;2023-04-06T00:42:12;13.65;;;7.40;;
43857;SDS011;29507;51.284;5.758;2023-04-06T00:44:39;18.77;;;7.53;;
43857;SDS011;29507;51.284;5.758;2023-04-06T00:47:08;16.35;;;8.48;;
43857;SDS011;29507;51.284;5.758;2023-04-06T00:49:34;19.95;;;8.35;;
43857;SDS011;29507;51.284;5.758;2023-04-06T00:52:00;17.08;;;8.05;;
43857;SDS011;29507;51.284;5.758;2023-04-06T00:54:26;15.35;;;7.65;;
43857;SDS011;29507;51.284;5.758;2023-04-06T00:56:52;19.05;;;8.25;;
43857;SDS011;29507;51.284;5.758;2023-04-06T00:59:17;15.93;;;7.53;;
43857;SDS011;29507;51.284;5.758;2023-04-06T01:01:43;20.20;;;7.80;;
43857;SDS011;29507;51.284;5.758;2023-04-06T01:04:09;18.85;;;8.55;;
43857;SDS011;29507;51.284;5.758;2023-04-06T01:06:35;16.15;;;8.40;;
43857;SDS011;29507;51.284;5.758;2023-04-06T01:09:00;16.63;;;7.53;;
43857;SDS011;29507;51.284;5.758;2023-04-06T01:11:26;19.95;;;7.82;;
43857;SDS011;29507;51.284;5.758;2023-04-06T01:13:52;22.05;;;8.80;;
43857;SDS011;29507;51.284;5.758;2023-04-06T01:16:18;18.42;;;7.93;;
43857;SDS011;29507;51.284;5.758;2023-04-06T01:18:43;21.30;;;8.80;;
43857;SDS011;29507;51.284;5.758;2023-04-06T01:21:09;19.60;;;9.23;;
43857;SDS011;29507;51.284;5.758;2023-04-06T01:23:40;21.15;;;8.95;;
43857;SDS011;29507;51.284;5.758;2023-04-06T01:26:10;20.35;;;9.45;;
43857;SDS011;29507;51.284;5.758;2023-04-06T01:28:36;19.23;;;8.60;;
43857;SDS011;29507;51.284;5.758;2023-04-06T01:31:02;18.60;;;7.93;;
43857;SDS011;29507;51.284;5.758;2023-04-06T01:33:28;16.73;;;8.23;;
43857;SDS011;29507;51.284;5.758;2023-04-06T01:35:54;18.48;;;8.95;;
43857;SDS011;29507;51.284;5.758;2023-04-06T01:38:20;21.27;;;9.55;;
43857;SDS011;29507;51.284;5.758;2023-04-06T01:40:45;18.10;;;7.95;;
43857;SDS011;29507;51.284;5.758;2023-04-06T01:43:11;26.38;;;9.43;;
43857;SDS011;29507;51.284;5.758;2023-04-06T01:45:37;17.45;;;9.55;;
43857;SDS011;29507;51.284;5.758;2023-04-06T01:48:02;22.55;;;9.25;;
43857;SDS011;29507;51.284;5.758;2023-04-06T01:50:28;21.65;;;9.77;;
43857;SDS011;29507;51.284;5.758;2023-04-06T01:52:54;18.40;;;9.35;;
43857;SDS011;29507;51.284;5.758;2023-04-06T01:55:19;19.13;;;8.45;;
43857;SDS011;29507;51.284;5.758;2023-04-06T01:57:45;17.92;;;9.18;;
43857;SDS011;29507;51.284;5.758;2023-04-06T02:00:11;20.33;;;8.68;;
43857;SDS011;29507;51.284;5.758;2023-04-06T02:02:37;19.10;;;9.75;;
43857;SDS011;29507;51.284;5.758;2023-04-06T02:05:03;19.58;;;9.32;;
43857;SDS011;29507;51.284;5.758;2023-04-06T02:07:28;24.35;;;10.48;;
43857;SDS011;29507;51.284;5.758;2023-04-06T02:09:54;23.85;;;10.45;;
43857;SDS011;29507;51.284;5.758;2023-04-06T02:12:21;24.33;;;10.52;;
43857;SDS011;29507;51.284;5.758;2023-04-06T02:14:46;21.77;;;10.32;;
43857;SDS011;29507;51.284;5.758;2023-04-06T02:17:12;20.77;;;9.77;;
43857;SDS011;29507;51.284;5.758;2023-04-06T02:19:37;26.85;;;10.25;;
43857;SDS011;29507;51.284;5.758;2023-04-06T02:22:03;20.83;;;9.75;;
43857;SDS011;29507;51.284;5.758;2023-04-06T02:24:28;20.75;;;10.65;;
43857;SDS011;29507;51.284;5.758;2023-04-06T02:26:54;24.58;;;10.70;;
43857;SDS011;29507;51.284;5.758;2023-04-06T02:29:20;23.13;;;10.20;;
43857;SDS011;29507;51.284;5.758;2023-04-06T02:31:46;22.80;;;9.93;;
43857;SDS011;29507;51.284;5.758;2023-04-06T02:34:11;26.98;;;11.38;;
43857;SDS011;29507;51.284;5.758;2023-04-06T02:36:42;22.73;;;10.48;;
43857;SDS011;29507;51.284;5.758;2023-04-06T02:39:09;21.65;;;10.48;;
43857;SDS011;29507;51.284;5.758;2023-04-06T02:41:35;18.90;;;9.07;;
43857;SDS011;29507;51.284;5.758;2023-04-06T02:44:00;22.48;;;10.13;;
43857;SDS011;29507;51.284;5.758;2023-04-06T02:46:26;27.45;;;10.52;;
43857;SDS011;29507;51.284;5.758;2023-04-06T02:48:52;22.05;;;9.57;;
43857;SDS011;29507;51.284;5.758;2023-04-06T02:51:17;21.77;;;10.02;;
43857;SDS011;29507;51.284;5.758;2023-04-06T02:53:43;23.67;;;11.07;;
43857;SDS011;29507;51.284;5.758;2023-04-06T02:56:09;21.23;;;9.07;;
43857;SDS011;29507;51.284;5.758;2023-04-06T02:58:35;18.52;;;9.40;;
43857;SDS011;29507;51.284;5.758;2023-04-06T03:01:01;21.05;;;9.43;;
43857;SDS011;29507;51.284;5.758;2023-04-06T03:03:27;19.23;;;9.88;;
43857;SDS011;29507;51.284;5.758;2023-04-06T03:05:53;21.38;;;10.45;;
43857;SDS011;29507;51.284;5.758;2023-04-06T03:08:21;26.85;;;9.18;;
43857;SDS011;29507;51.284;5.758;2023-04-06T03:10:46;19.25;;;9.32;;
43857;SDS011;29507;51.284;5.758;2023-04-06T03:13:12;18.15;;;8.98;;
43857;SDS011;29507;51.284;5.758;2023-04-06T03:15:37;19.02;;;9.32;;
43857;SDS011;29507;51.284;5.758;2023-04-06T03:18:03;23.08;;;9.80;;
43857;SDS011;29507;51.284;5.758;2023-04-06T03:20:29;21.40;;;9.05;;
43857;SDS011;29507;51.284;5.758;2023-04-06T03:22:55;21.35;;;9.13;;
43857;SDS011;29507;51.284;5.758;2023-04-06T03:25:20;20.77;;;9.25;;
43857;SDS011;29507;51.284;5.758;2023-04-06T03:27:46;20.48;;;9.15;;
43857;SDS011;29507;51.284;5.758;2023-04-06T03:30:11;19.52;;;10.77;;
43857;SDS011;29507;51.284;5.758;2023-04-06T03:32:37;25.38;;;9.63;;
43857;SDS011;29507;51.284;5.758;2023-04-06T03:35:03;19.92;;;9.02;;
43857;SDS011;29507;51.284;5.758;2023-04-06T03:37:29;17.63;;;8.73;;
43857;SDS011;29507;51.284;5.758;2023-04-06T03:39:55;21.83;;;9.65;;
43857;SDS011;29507;51.284;5.758;2023-04-06T03:42:20;19.15;;;9.35;;
43857;SDS011;29507;51.284;5.758;2023-04-06T03:44:46;22.52;;;9.82;;
43857;SDS011;29507;51.284;5.758;2023-04-06T03:47:11;20.00;;;9.68;;
43857;SDS011;29507;51.284;5.758;2023-04-06T03:49:37;18.73;;;9.77;;
43857;SDS011;29507;51.284;5.758;2023-04-06T03:52:02;16.38;;;8.77;;
43857;SDS011;29507;51.284;5.758;2023-04-06T03:54:28;24.10;;;9.13;;
43857;SDS011;29507;51.284;5.758;2023-04-06T03:56:54;19.20;;;9.57;;
43857;SDS011;29507;51.284;5.758;2023-04-06T03:59:20;18.60;;;8.65;;
43857;SDS011;29507;51.284;5.758;2023-04-06T04:01:45;19.20;;;9.00;;
43857;SDS011;29507;51.284;5.758;2023-04-06T04:04:11;24.52;;;10.18;;
43857;SDS011;29507;51.284;5.758;2023-04-06T04:06:37;20.75;;;9.07;;
43857;SDS011;29507;51.284;5.758;2023-04-06T04:09:03;20.55;;;9.05;;
43857;SDS011;29507;51.284;5.758;2023-04-06T04:11:28;17.98;;;8.85;;
43857;SDS011;29507;51.284;5.758;2023-04-06T04:13:54;21.08;;;9.52;;
43857;SDS011;29507;51.284;5.758;2023-04-06T04:16:20;26.50;;;9.80;;
43857;SDS011;29507;51.284;5.758;2023-04-06T04:18:45;17.98;;;9.40;;
43857;SDS011;29507;51.284;5.758;2023-04-06T04:21:13;20.38;;;9.23;;
43857;SDS011;29507;51.284;5.758;2023-04-06T04:23:38;22.60;;;10.32;;
43857;SDS011;29507;51.284;5.758;2023-04-06T04:26:04;21.42;;;9.40;;
43857;SDS011;29507;51.284;5.758;2023-04-06T04:28:29;21.40;;;9.63;;
43857;SDS011;29507;51.284;5.758;2023-04-06T04:30:55;20.27;;;8.75;;
43857;SDS011;29507;51.284;5.758;2023-04-06T04:33:21;18.05;;;8.93;;
43857;SDS011;29507;51.284;5.758;2023-04-06T04:35:46;19.95;;;9.07;;
43857;SDS011;29507;51.284;5.758;2023-04-06T04:38:12;16.50;;;8.40;;
43857;SDS011;29507;51.284;5.758;2023-04-06T04:40:37;21.20;;;8.88;;
43857;SDS011;29507;51.284;5.758;2023-04-06T04:43:03;18.80;;;9.43;;
43857;SDS011;29507;51.284;5.758;2023-04-06T04:45:28;17.40;;;8.55;;
43857;SDS011;29507;51.284;5.758;2023-04-06T04:47:54;20.70;;;9.02;;
43857;SDS011;29507;51.284;5.758;2023-04-06T04:50:19;18.98;;;9.35;;
43857;SDS011;29507;51.284;5.758;2023-04-06T04:52:45;21.83;;;9.63;;
43857;SDS011;29507;51.284;5.758;2023-04-06T04:55:11;19.70;;;9.38;;
43857;SDS011;29507;51.284;5.758;2023-04-06T04:57:36;22.40;;;9.88;;
43857;SDS011;29507;51.284;5.758;2023-04-06T05:00:02;20.80;;;9.75;;
43857;SDS011;29507;51.284;5.758;2023-04-06T05:02:28;23.30;;;11.00;;
43857;SDS011;29507;51.284;5.758;2023-04-06T05:04:53;17.60;;;9.45;;
43857;SDS011;29507;51.284;5.758;2023-04-06T05:07:19;20.88;;;10.35;;
43857;SDS011;29507;51.284;5.758;2023-04-06T05:09:45;20.73;;;10.15;;
43857;SDS011;29507;51.284;5.758;2023-04-06T05:12:11;21.80;;;9.85;;
43857;SDS011;29507;51.284;5.758;2023-04-06T05:14:37;19.92;;;9.57;;
43857;SDS011;29507;51.284;5.758;2023-04-06T05:17:02;22.52;;;9.65;;
43857;SDS011;29507;51.284;5.758;2023-04-06T05:19:29;20.25;;;9.60;;
43857;SDS011;29507;51.284;5.758;2023-04-06T05:21:54;21.00;;;9.73;;
43857;SDS011;29507;51.284;5.758;2023-04-06T05:24:20;24.15;;;9.80;;
43857;SDS011;29507;51.284;5.758;2023-04-06T05:26:46;19.10;;;10.15;;
43857;SDS011;29507;51.284;5.758;2023-04-06T05:29:11;23.00;;;10.00;;
43857;SDS011;29507;51.284;5.758;2023-04-06T05:31:37;20.90;;;9.73;;
43857;SDS011;29507;51.284;5.758;2023-04-06T05:34:03;23.90;;;10.52;;
43857;SDS011;29507;51.284;5.758;2023-04-06T05:36:28;23.27;;;9.77;;
43857;SDS011;29507;51.284;5.758;2023-04-06T05:38:55;18.33;;;8.90;;
43857;SDS011;29507;51.284;5.758;2023-04-06T05:41:21;19.35;;;9.48;;
43857;SDS011;29507;51.284;5.758;2023-04-06T05:43:46;20.67;;;9.15;;
43857;SDS011;29507;51.284;5.758;2023-04-06T05:46:12;18.23;;;9.68;;
43857;SDS011;29507;51.284;5.758;2023-04-06T05:48:37;19.35;;;9.40;;
43857;SDS011;29507;51.284;5.758;2023-04-06T05:51:03;18.27;;;8.75;;
43857;SDS011;29507;51.284;5.758;2023-04-06T05:53:31;24.52;;;9.27;;
43857;SDS011;29507;51.284;5.758;2023-04-06T05:56:00;15.43;;;8.10;;
43857;SDS011;29507;51.284;5.758;2023-04-06T05:58:26;19.42;;;8.98;;
43857;SDS011;29507;51.284;5.758;2023-04-06T06:00:56;20.60;;;8.80;;
43857;SDS011;29507;51.284;5.758;2023-04-06T06:03:22;20.77;;;8.02;;
43857;SDS011;29507;51.284;5.758;2023-04-06T06:05:48;19.23;;;9.07;;
43857;SDS011;29507;51.284;5.758;2023-04-06T06:08:13;20.58;;;8.90;;
43857;SDS011;29507;51.284;5.758;2023-04-06T06:10:39;21.73;;;8.65;;
43857;SDS011;29507;51.284;5.758;2023-04-06T06:13:05;19.17;;;9.27;;
43857;SDS011;29507;51.284;5.758;2023-04-06T06:15:31;17.48;;;8.60;;
43857;SDS011;29507;51.284;5.758;2023-04-06T06:17:56;18.67;;;8.38;;
43857;SDS011;29507;51.284;5.758;2023-04-06T06:20:22;16.83;;;9.13;;
43857;SDS011;29507;51.284;5.758;2023-04-06T06:22:47;18.63;;;8.40;;
43857;SDS011;29507;51.284;5.758;2023-04-06T06:25:13;22.00;;;8.82;;
43857;SDS011;29507;51.284;5.758;2023-04-06T06:27:38;15.75;;;8.70;;
43857;SDS011;29507;51.284;5.758;2023-04-06T06:30:04;17.63;;;8.07;;
43857;SDS011;29507;51.284;5.758;2023-04-06T06:32:30;17.08;;;8.65;;
43857;SDS011;29507;51.284;5.758;2023-04-06T06:34:56;22.40;;;8.82;;
43857;SDS011;29507;51.284;5.758;2023-04-06T06:37:22;19.13;;;8.10;;
43857;SDS011;29507;51.284;5.758;2023-04-06T06:39:48;21.20;;;8.65;;
43857;SDS011;29507;51.284;5.758;2023-04-06T06:42:13;16.88;;;7.60;;
43857;SDS011;29507;51.284;5.758;2023-04-06T06:44:39;21.13;;;8.13;;
43857;SDS011;29507;51.284;5.758;2023-04-06T06:47:04;18.27;;;8.38;;
43857;SDS011;29507;51.284;5.758;2023-04-06T06:49:30;22.85;;;9.80;;
43857;SDS011;29507;51.284;5.758;2023-04-06T06:51:56;16.83;;;8.70;;
43857;SDS011;29507;51.284;5.758;2023-04-06T06:54:21;18.30;;;8.30;;
43857;SDS011;29507;51.284;5.758;2023-04-06T06:56:47;16.73;;;8.65;;
43857;SDS011;29507;51.284;5.758;2023-04-06T06:59:12;21.02;;;8.57;;
43857;SDS011;29507;51.284;5.758;2023-04-06T07:01:38;12.23;;;6.30;;
43857;SDS011;29507;51.284;5.758;2023-04-06T07:04:04;21.33;;;9.05;;
43857;SDS011;29507;51.284;5.758;2023-04-06T07:06:29;16.75;;;7.78;;
43857;SDS011;29507;51.284;5.758;2023-04-06T07:08:55;16.80;;;7.85;;
43857;SDS011;29507;51.284;5.758;2023-04-06T07:11:20;18.13;;;6.93;;
43857;SDS011;29507;51.284;5.758;2023-04-06T07:13:46;16.13;;;7.80;;
43857;SDS011;29507;51.284;5.758;2023-04-06T07:16:12;18.02;;;7.70;;
43857;SDS011;29507;51.284;5.758;2023-04-06T07:18:37;18.38;;;8.32;;
43857;SDS011;29507;51.284;5.758;2023-04-06T07:21:03;18.95;;;8.88;;
43857;SDS011;29507;51.284;5.758;2023-04-06T07:23:29;18.27;;;8.15;;
43857;SDS011;29507;51.284;5.758;2023-04-06T07:25:55;19.17;;;7.72;;
43857;SDS011;29507;51.284;5.758;2023-04-06T07:28:20;21.15;;;7.88;;
43857;SDS011;29507;51.284;5.758;2023-04-06T07:30:47;15.63;;;8.15;;
43857;SDS011;29507;51.284;5.758;2023-04-06T07:33:12;15.80;;;7.43;;
43857;SDS011;29507;51.284;5.758;2023-04-06T07:35:38;17.85;;;7.22;;
43857;SDS011;29507;51.284;5.758;2023-04-06T07:38:04;14.88;;;7.13;;
43857;SDS011;29507;51.284;5.758;2023-04-06T07:40:30;17.50;;;7.55;;
43857;SDS011;29507;51.284;5.758;2023-04-06T07:42:57;17.30;;;7.70;;
43857;SDS011;29507;51.284;5.758;2023-04-06T07:45:23;17.73;;;7.47;;
43857;SDS011;29507;51.284;5.758;2023-04-06T07:47:48;15.43;;;7.40;;
43857;SDS011;29507;51.284;5.758;2023-04-06T07:50:14;14.07;;;6.63;;
43857;SDS011;29507;51.284;5.758;2023-04-06T07:52:40;17.88;;;7.85;;
43857;SDS011;29507;51.284;5.758;2023-04-06T07:55:06;17.45;;;8.05;;
43857;SDS011;29507;51.284;5.758;2023-04-06T07:57:32;21.08;;;8.27;;
43857;SDS011;29507;51.284;5.758;2023-04-06T07:59:57;25.77;;;7.75;;
43857;SDS011;29507;51.284;5.758;2023-04-06T08:02:23;20.50;;;7.53;;
43857;SDS011;29507;51.284;5.758;2023-04-06T08:04:48;18.23;;;7.93;;
43857;SDS011;29507;51.284;5.758;2023-04-06T08:07:14;17.38;;;8.70;;
43857;SDS011;29507;51.284;5.758;2023-04-06T08:09:39;14.70;;;7.32;;
43857;SDS011;29507;51.284;5.758;2023-04-06T08:12:05;16.38;;;7.32;;
43857;SDS011;29507;51.284;5.758;2023-04-06T08:14:31;18.45;;;8.57;;
43857;SDS011;29507;51.284;5.758;2023-04-06T08:16:56;14.52;;;7.03;;
43857;SDS011;29507;51.284;5.758;2023-04-06T08:19:22;17.48;;;7.85;;
43857;SDS011;29507;51.284;5.758;2023-04-06T08:21:48;15.98;;;8.15;;
43857;SDS011;29507;51.284;5.758;2023-04-06T08:24:14;18.10;;;8.02;;
43857;SDS011;29507;51.284;5.758;2023-04-06T08:26:40;16.15;;;7.32;;
43857;SDS011;29507;51.284;5.758;2023-04-06T08:29:05;20.58;;;6.85;;
43857;SDS011;29507;51.284;5.758;2023-04-06T08:31:34;15.05;;;7.78;;
43857;SDS011;29507;51.284;5.758;2023-04-06T08:34:00;15.25;;;7.40;;
43857;SDS011;29507;51.284;5.758;2023-04-06T08:36:27;16.40;;;8.63;;
43857;SDS011;29507;51.284;5.758;2023-04-06T08:38:52;16.52;;;8.43;;
43857;SDS011;29507;51.284;5.758;2023-04-06T08:41:18;16.42;;;7.65;;
43857;SDS011;29507;51.284;5.758;2023-04-06T08:43:57;20.52;;;7.72;;
43857;SDS011;29507;51.284;5.758;2023-04-06T08:46:25;19.20;;;7.85;;
43857;SDS011;29507;51.284;5.758;2023-04-06T08:48:59;14.18;;;7.82;;
43857;SDS011;29507;51.284;5.758;2023-04-06T08:51:27;19.05;;;8.45;;
43857;SDS011;29507;51.284;5.758;2023-04-06T08:53:54;20.33;;;8.13;;
43857;SDS011;29507;51.284;5.758;2023-04-06T08:56:21;19.77;;;9.00;;
43857;SDS011;29507;51.284;5.758;2023-04-06T08:58:55;16.25;;;7.85;;
43857;SDS011;29507;51.284;5.758;2023-04-06T09:01:22;24.95;;;8.38;;
43857;SDS011;29507;51.284;5.758;2023-04-06T09:06:18;24.13;;;7.97;;
43857;SDS011;29507;51.284;5.758;2023-04-06T09:08:44;19.08;;;8.05;;
43857;SDS011;29507;51.284;5.758;2023-04-06T09:11:10;19.00;;;7.90;;
43857;SDS011;29507;51.284;5.758;2023-04-06T09:13:49;15.48;;;7.82;;
43857;SDS011;29507;51.284;5.758;2023-04-06T09:16:17;16.10;;;7.50;;
43857;SDS011;29507;51.284;5.758;2023-04-06T09:18:43;20.05;;;8.20;;
43857;SDS011;29507;51.284;5.758;2023-04-06T09:21:09;20.77;;;8.07;;
43857;SDS011;29507;51.284;5.758;2023-04-06T09:23:35;19.90;;;7.82;;
43857;SDS011;29507;51.284;5.758;2023-04-06T09:28:46;17.33;;;7.90;;
43857;SDS011;29507;51.284;5.758;2023-04-06T09:31:14;20.47;;;7.90;;
43857;SDS011;29507;51.284;5.758;2023-04-06T09:33:41;16.17;;;8.05;;
43857;SDS011;29507;51.284;5.758;2023-04-06T09:36:08;17.40;;;7.00;;
43857;SDS011;29507;51.284;5.758;2023-04-06T09:38:51;16.75;;;7.13;;
43857;SDS011;29507;51.284;5.758;2023-04-06T09:43:49;15.13;;;7.10;;
43857;SDS011;29507;51.284;5.758;2023-04-06T09:46:16;15.85;;;7.78;;
43857;SDS011;29507;51.284;5.758;2023-04-06T09:48:44;16.45;;;7.18;;
43857;SDS011;29507;51.284;5.758;2023-04-06T09:51:10;12.98;;;6.65;;
43857;SDS011;29507;51.284;5.758;2023-04-06T09:53:39;18.02;;;6.93;;
43857;SDS011;29507;51.284;5.758;2023-04-06T09:56:08;11.20;;;5.80;;
43857;SDS011;29507;51.284;5.758;2023-04-06T09:58:37;17.00;;;6.72;;
43857;SDS011;29507;51.284;5.758;2023-04-06T10:01:15;11.98;;;6.50;;
43857;SDS011;29507;51.284;5.758;2023-04-06T10:06:22;14.27;;;6.28;;
43857;SDS011;29507;51.284;5.758;2023-04-06T10:08:52;12.98;;;6.18;;
43857;SDS011;29507;51.284;5.758;2023-04-06T10:11:21;13.18;;;6.13;;
43857;SDS011;29507;51.284;5.758;2023-04-06T10:13:47;13.45;;;6.45;;
43857;SDS011;29507;51.284;5.758;2023-04-06T10:16:14;12.15;;;6.00;;
43857;SDS011;29507;51.284;5.758;2023-04-06T10:18:41;14.82;;;6.60;;
43857;SDS011;29507;51.284;5.758;2023-04-06T10:21:14;12.85;;;5.47;;
43857;SDS011;29507;51.284;5.758;2023-04-06T10:24:00;12.20;;;6.55;;
43857;SDS011;29507;51.284;5.758;2023-04-06T10:26:27;13.15;;;5.75;;
43857;SDS011;29507;51.284;5.758;2023-04-06T10:28:53;12.43;;;6.00;;
43857;SDS011;29507;51.284;5.758;2023-04-06T10:31:26;13.63;;;6.18;;
43857;SDS011;29507;51.284;5.758;2023-04-06T10:33:53;17.90;;;6.15;;
43857;SDS011;29507;51.284;5.758;2023-04-06T10:36:28;14.05;;;5.78;;
43857;SDS011;29507;51.284;5.758;2023-04-06T10:38:57;10.30;;;5.22;;
43857;SDS011;29507;51.284;5.758;2023-04-06T10:41:31;10.93;;;4.82;;
43857;SDS011;29507;51.284;5.758;2023-04-06T10:44:01;11.32;;;5.00;;
43857;SDS011;29507;51.284;5.758;2023-04-06T10:46:31;14.10;;;6.05;;
43857;SDS011;29507;51.284;5.758;2023-04-06T10:48:57;9.65;;;4.95;;
43857;SDS011;29507;51.284;5.758;2023-04-06T10:51:37;11.57;;;5.28;;
43857;SDS011;29507;51.284;5.758;2023-04-06T10:54:04;8.57;;;4.75;;
43857;SDS011;29507;51.284;5.758;2023-04-06T10:56:31;9.32;;;4.43;;
43857;SDS011;29507;51.284;5.758;2023-04-06T10:59:01;8.90;;;4.05;;
43857;SDS011;29507;51.284;5.758;2023-04-06T11:01:27;11.52;;;4.38;;
43857;SDS011;29507;51.284;5.758;2023-04-06T11:03:53;10.98;;;4.55;;
43857;SDS011;29507;51.284;5.758;2023-04-06T11:06:25;9.90;;;4.45;;
43857;SDS011;29507;51.284;5.758;2023-04-06T11:08:54;11.68;;;4.35;;
43857;SDS011;29507;51.284;5.758;2023-04-06T11:11:21;7.88;;;3.80;;
43857;SDS011;29507;51.284;5.758;2023-04-06T11:16:24;5.57;;;2.70;;
43857;SDS011;29507;51.284;5.758;2023-04-06T11:18:55;5.72;;;2.55;;
43857;SDS011;29507;51.284;5.758;2023-04-06T11:21:37;5.97;;;2.92;;
43857;SDS011;29507;51.284;5.758;2023-04-06T11:24:09;5.72;;;3.33;;
43857;SDS011;29507;51.284;5.758;2023-04-06T11:26:42;5.53;;;2.83;;
43857;SDS011;29507;51.284;5.758;2023-04-06T11:29:10;7.55;;;3.03;;
43857;SDS011;29507;51.284;5.758;2023-04-06T11:31:50;7.15;;;3.20;;
43857;SDS011;29507;51.284;5.758;2023-04-06T11:34:18;7.65;;;3.00;;
43857;SDS011;29507;51.284;5.758;2023-04-06T11:36:45;8.38;;;3.75;;
43857;SDS011;29507;51.284;5.758;2023-04-06T11:39:18;8.10;;;3.55;;
43857;SDS011;29507;51.284;5.758;2023-04-06T11:41:51;7.83;;;3.63;;
43857;SDS011;29507;51.284;5.758;2023-04-06T11:47:10;6.78;;;3.33;;
43857;SDS011;29507;51.284;5.758;2023-04-06T11:49:38;10.95;;;4.35;;
43857;SDS011;29507;51.284;5.758;2023-04-06T11:52:14;7.90;;;3.83;;
43857;SDS011;29507;51.284;5.758;2023-04-06T11:54:40;11.02;;;4.65;;
43857;SDS011;29507;51.284;5.758;2023-04-06T11:57:07;8.43;;;4.25;;
43857;SDS011;29507;51.284;5.758;2023-04-06T11:59:34;9.00;;;4.05;;
43857;SDS011;29507;51.284;5.758;2023-04-06T12:02:03;7.95;;;3.95;;
43857;SDS011;29507;51.284;5.758;2023-04-06T12:04:29;20.70;;;4.35;;
43857;SDS011;29507;51.284;5.758;2023-04-06T12:06:55;8.30;;;4.07;;
43857;SDS011;29507;51.284;5.758;2023-04-06T12:09:21;8.70;;;4.00;;
43857;SDS011;29507;51.284;5.758;2023-04-06T12:11:46;8.73;;;4.20;;
43857;SDS011;29507;51.284;5.758;2023-04-06T12:14:12;10.52;;;4.22;;
43857;SDS011;29507;51.284;5.758;2023-04-06T12:16:38;11.70;;;4.65;;
43857;SDS011;29507;51.284;5.758;2023-04-06T12:19:05;11.10;;;5.35;;
43857;SDS011;29507;51.284;5.758;2023-04-06T12:21:31;9.95;;;4.97;;
43857;SDS011;29507;51.284;5.758;2023-04-06T12:23:57;8.43;;;4.47;;
43857;SDS011;29507;51.284;5.758;2023-04-06T12:26:23;12.30;;;4.90;;
43857;SDS011;29507;51.284;5.758;2023-04-06T12:28:49;8.50;;;4.63;;
43857;SDS011;29507;51.284;5.758;2023-04-06T12:31:19;8.85;;;4.75;;
43857;SDS011;29507;51.284;5.758;2023-04-06T12:33:46;10.45;;;5.10;;
43857;SDS011;29507;51.284;5.758;2023-04-06T12:36:13;9.55;;;4.22;;
43857;SDS011;29507;51.284;5.758;2023-04-06T12:38:40;12.70;;;4.45;;
43857;SDS011;29507;51.284;5.758;2023-04-06T12:41:06;15.38;;;5.10;;
43857;SDS011;29507;51.284;5.758;2023-04-06T12:43:32;9.32;;;4.72;;
43857;SDS011;29507;51.284;5.758;2023-04-06T12:45:58;12.98;;;5.53;;
43857;SDS011;29507;51.284;5.758;2023-04-06T12:48:24;11.35;;;5.20;;
43857;SDS011;29507;51.284;5.758;2023-04-06T12:53:45;9.68;;;5.30;;
43857;SDS011;29507;51.284;5.758;2023-04-06T12:56:11;10.57;;;4.47;;
43857;SDS011;29507;51.284;5.758;2023-04-06T12:58:38;10.25;;;4.35;;
43857;SDS011;29507;51.284;5.758;2023-04-06T13:01:06;10.38;;;5.25;;
43857;SDS011;29507;51.284;5.758;2023-04-06T13:03:32;9.60;;;4.80;;
43857;SDS011;29507;51.284;5.758;2023-04-06T13:05:59;10.23;;;4.97;;
43857;SDS011;29507;51.284;5.758;2023-04-06T13:08:26;10.63;;;5.45;;
43857;SDS011;29507;51.284;5.758;2023-04-06T13:10:52;11.27;;;5.63;;
43857;SDS011;29507;51.284;5.758;2023-04-06T13:13:28;9.57;;;5.00;;
43857;SDS011;29507;51.284;5.758;2023-04-06T13:15:58;9.85;;;4.80;;
43857;SDS011;29507;51.284;5.758;2023-04-06T13:18:26;11.27;;;5.20;;
43857;SDS011;29507;51.284;5.758;2023-04-06T13:20:51;11.18;;;4.90;;
43857;SDS011;29507;51.284;5.758;2023-04-06T13:23:17;15.05;;;5.47;;
43857;SDS011;29507;51.284;5.758;2023-04-06T13:25:43;12.48;;;5.00;;
43857;SDS011;29507;51.284;5.758;2023-04-06T13:28:08;11.32;;;5.57;;
43857;SDS011;29507;51.284;5.758;2023-04-06T13:30:34;11.18;;;4.78;;
43857;SDS011;29507;51.284;5.758;2023-04-06T13:33:01;11.82;;;5.40;;
43857;SDS011;29507;51.284;5.758;2023-04-06T13:35:27;10.20;;;5.00;;
43857;SDS011;29507;51.284;5.758;2023-04-06T13:37:52;9.93;;;5.07;;
43857;SDS011;29507;51.284;5.758;2023-04-06T13:40:18;9.32;;;4.40;;
43857;SDS011;29507;51.284;5.758;2023-04-06T13:42:44;9.15;;;5.07;;
43857;SDS011;29507;51.284;5.758;2023-04-06T13:45:11;8.65;;;4.40;;
43857;SDS011;29507;51.284;5.758;2023-04-06T13:47:36;6.78;;;3.97;;
43857;SDS011;29507;51.284;5.758;2023-04-06T13:50:02;10.02;;;4.60;;
43857;SDS011;29507;51.284;5.758;2023-04-06T13:52:28;9.07;;;3.97;;
43857;SDS011;29507;51.284;5.758;2023-04-06T13:54:54;8.93;;;4.80;;
43857;SDS011;29507;51.284;5.758;2023-04-06T13:57:20;9.88;;;4.93;;
43857;SDS011;29507;51.284;5.758;2023-04-06T13:59:46;8.25;;;4.30;;
43857;SDS011;29507;51.284;5.758;2023-04-06T14:02:12;8.75;;;3.70;;
43857;SDS011;29507;51.284;5.758;2023-04-06T14:04:37;9.48;;;3.60;;
43857;SDS011;29507;51.284;5.758;2023-04-06T14:07:03;7.63;;;3.72;;
43857;SDS011;29507;51.284;5.758;2023-04-06T14:09:32;7.93;;;3.90;;
43857;SDS011;29507;51.284;5.758;2023-04-06T14:11:59;8.82;;;4.65;;
43857;SDS011;29507;51.284;5.758;2023-04-06T14:14:25;8.82;;;4.70;;
43857;SDS011;29507;51.284;5.758;2023-04-06T14:16:51;10.27;;;4.75;;
43857;SDS011;29507;51.284;5.758;2023-04-06T14:19:17;10.57;;;4.68;;
43857;SDS011;29507;51.284;5.758;2023-04-06T14:21:46;8.85;;;4.72;;
43857;SDS011;29507;51.284;5.758;2023-04-06T14:24:13;9.95;;;4.93;;
43857;SDS011;29507;51.284;5.758;2023-04-06T14:26:39;8.88;;;4.28;;
43857;SDS011;29507;51.284;5.758;2023-04-06T14:29:06;11.45;;;5.05;;
43857;SDS011;29507;51.284;5.758;2023-04-06T14:31:32;8.38;;;4.47;;
43857;SDS011;29507;51.284;5.758;2023-04-06T14:34:00;11.30;;;5.10;;
43857;SDS011;29507;51.284;5.758;2023-04-06T14:36:27;9.73;;;4.38;;
43857;SDS011;29507;51.284;5.758;2023-04-06T14:38:54;7.00;;;3.40;;
43857;SDS011;29507;51.284;5.758;2023-04-06T14:41:22;8.52;;;4.10;;
43857;SDS011;29507;51.284;5.758;2023-04-06T14:43:50;7.95;;;4.20;;
43857;SDS011;29507;51.284;5.758;2023-04-06T14:46:17;8.52;;;3.90;;
43857;SDS011;29507;51.284;5.758;2023-04-06T14:48:44;9.70;;;3.38;;
43857;SDS011;29507;51.284;5.758;2023-04-06T14:51:10;8.55;;;3.45;;